sensor_id;sensor_type;location;lat;lon;timestamp;temperature;humidity
6439;DHT22;3252;52.540;13.290;2023-03-04T00:00:18;2.70;99.90
6439;DHT22;3252;52.540;13.290;2023-03-04T00:02:21;2.70;99.90
6439;DHT22;3252;52.540;13.290;2023-03-04T00:04:23;2.80;99.90
6439;DHT22;3252;52.540;13.290;2023-03-04T00:06:25;2.80;99.90
6439;DHT22;3252;52.540;13.290;2023-03-04T00:08:29;2.80;99.90
6439;DHT22;3252;52.540;13.290;2023-03-04T00:10:37;2.80;99.90
6439;DHT22;3252;52.540;13.290;2023-03-04T00:12:40;2.80;99.90
6439;DHT22;3252;52.540;13.290;2023-03-04T00:14:42;2.80;99.90
6439;DHT22;3252;52.540;13.290;2023-03-04T00:16:44;2.80;99.90
6439;DHT22;3252;52.540;13.290;2023-03-04T00:18:46;2.80;99.90
6439;DHT22;3252;52.540;13.290;2023-03-04T00:20:48;2.80;99.90
6439;DHT22;3252;52.540;13.290;2023-03-04T00:22:51;2.70;99.90
6439;DHT22;3252;52.540;13.290;2023-03-04T00:24:56;2.70;99.90
6439;DHT22;3252;52.540;13.290;2023-03-04T00:26:58;2.80;99.90
6439;DHT22;3252;52.540;13.290;2023-03-04T00:29:01;2.80;99.90
6439;DHT22;3252;52.540;13.290;2023-03-04T00:31:03;2.80;99.90
6439;DHT22;3252;52.540;13.290;2023-03-04T00:33:05;2.80;99.90
6439;DHT22;3252;52.540;13.290;2023-03-04T00:35:08;2.80;99.90
6439;DHT22;3252;52.540;13.290;2023-03-04T00:37:11;2.90;99.90
6439;DHT22;3252;52.540;13.290;2023-03-04T00:39:13;2.90;99.90
6439;DHT22;3252;52.540;13.290;2023-03-04T00:41:19;2.90;99.90
6439;DHT22;3252;52.540;13.290;2023-03-04T00:43:24;3.00;99.90
6439;DHT22;3252;52.540;13.290;2023-03-04T00:45:26;2.90;99.90
6439;DHT22;3252;52.540;13.290;2023-03-04T00:47:28;3.00;99.90
6439;DHT22;3252;52.540;13.290;2023-03-04T00:49:31;3.00;99.90
6439;DHT22;3252;52.540;13.290;2023-03-04T00:51:33;3.00;99.90
6439;DHT22;3252;52.540;13.290;2023-03-04T00:53:36;3.00;99.90
6439;DHT22;3252;52.540;13.290;2023-03-04T00:55:39;3.00;99.90
6439;DHT22;3252;52.540;13.290;2023-03-04T00:57:42;3.00;99.90
6439;DHT22;3252;52.540;13.290;2023-03-04T00:59:44;3.10;99.90
6439;DHT22;3252;52.540;13.290;2023-03-04T01:01:47;3.10;99.90
6439;DHT22;3252;52.540;13.290;2023-03-04T01:03:53;3.10;99.90
6439;DHT22;3252;52.540;13.290;2023-03-04T01:05:55;3.10;99.90
6439;DHT22;3252;52.540;13.290;2023-03-04T01:07:57;3.10;99.90
6439;DHT22;3252;52.540;13.290;2023-03-04T01:10:02;3.10;99.90
6439;DHT22;3252;52.540;13.290;2023-03-04T01:12:05;3.10;99.90
6439;DHT22;3252;52.540;13.290;2023-03-04T01:14:09;3.20;99.90
6439;DHT22;3252;52.540;13.290;2023-03-04T01:16:12;3.20;99.90
6439;DHT22;3252;52.540;13.290;2023-03-04T01:18:14;3.20;99.90
6439;DHT22;3252;52.540;13.290;2023-03-04T01:20:20;3.20;99.90
6439;DHT22;3252;52.540;13.290;2023-03-04T01:22:22;3.30;99.90
6439;DHT22;3252;52.540;13.290;2023-03-04T01:24:24;3.30;99.90
6439;DHT22;3252;52.540;13.290;2023-03-04T01:26:27;3.30;99.90
6439;DHT22;3252;52.540;13.290;2023-03-04T01:28:30;3.30;99.90
6439;DHT22;3252;52.540;13.290;2023-03-04T01:30:38;3.30;99.90
6439;DHT22;3252;52.540;13.290;2023-03-04T01:32:40;3.40;99.90
6439;DHT22;3252;52.540;13.290;2023-03-04T01:34:43;3.40;99.90
6439;DHT22;3252;52.540;13.290;2023-03-04T01:36:46;3.40;99.90
6439;DHT22;3252;52.540;13.290;2023-03-04T01:38:48;3.40;99.90
6439;DHT22;3252;52.540;13.290;2023-03-04T01:40:50;3.40;99.90
6439;DHT22;3252;52.540;13.290;2023-03-04T01:42:52;3.40;99.90
6439;DHT22;3252;52.540;13.290;2023-03-04T01:44:55;3.40;99.90
6439;DHT22;3252;52.540;13.290;2023-03-04T01:46:59;3.40;99.90
6439;DHT22;3252;52.540;13.290;2023-03-04T01:49:04;3.50;99.90
6439;DHT22;3252;52.540;13.290;2023-03-04T01:51:12;3.50;99.90
6439;DHT22;3252;52.540;13.290;2023-03-04T01:53:19;3.50;99.90
6439;DHT22;3252;52.540;13.290;2023-03-04T01:55:23;3.50;99.90
6439;DHT22;3252;52.540;13.290;2023-03-04T01:57:33;3.60;99.90
6439;DHT22;3252;52.540;13.290;2023-03-04T01:59:36;3.50;99.90
6439;DHT22;3252;52.540;13.290;2023-03-04T02:01:38;3.60;99.90
6439;DHT22;3252;52.540;13.290;2023-03-04T02:03:44;3.60;99.90
6439;DHT22;3252;52.540;13.290;2023-03-04T02:05:49;3.60;99.90
6439;DHT22;3252;52.540;13.290;2023-03-04T02:07:52;3.60;99.90
6439;DHT22;3252;52.540;13.290;2023-03-04T02:09:55;3.70;99.90
6439;DHT22;3252;52.540;13.290;2023-03-04T02:11:59;3.70;99.90
6439;DHT22;3252;52.540;13.290;2023-03-04T02:14:02;3.70;99.90
6439;DHT22;3252;52.540;13.290;2023-03-04T02:16:05;3.80;99.90
6439;DHT22;3252;52.540;13.290;2023-03-04T02:18:14;3.80;99.90
6439;DHT22;3252;52.540;13.290;2023-03-04T02:20:32;3.80;99.90
6439;DHT22;3252;52.540;13.290;2023-03-04T02:22:39;3.80;99.90
6439;DHT22;3252;52.540;13.290;2023-03-04T02:24:51;3.90;99.90
6439;DHT22;3252;52.540;13.290;2023-03-04T02:26:56;3.90;99.90
6439;DHT22;3252;52.540;13.290;2023-03-04T02:29:02;3.90;99.90
6439;DHT22;3252;52.540;13.290;2023-03-04T02:31:05;3.90;99.90
6439;DHT22;3252;52.540;13.290;2023-03-04T02:33:14;4.00;99.90
6439;DHT22;3252;52.540;13.290;2023-03-04T02:35:19;4.00;99.90
6439;DHT22;3252;52.540;13.290;2023-03-04T02:37:22;4.00;99.90
6439;DHT22;3252;52.540;13.290;2023-03-04T02:39:30;4.00;99.90
6439;DHT22;3252;52.540;13.290;2023-03-04T02:41:33;4.00;99.90
6439;DHT22;3252;52.540;13.290;2023-03-04T02:43:37;4.00;99.90
6439;DHT22;3252;52.540;13.290;2023-03-04T02:45:42;4.10;99.90
6439;DHT22;3252;52.540;13.290;2023-03-04T02:47:48;4.10;99.90
6439;DHT22;3252;52.540;13.290;2023-03-04T02:49:51;4.10;99.90
6439;DHT22;3252;52.540;13.290;2023-03-04T02:52:00;4.10;99.90
6439;DHT22;3252;52.540;13.290;2023-03-04T02:54:02;4.10;99.90
6439;DHT22;3252;52.540;13.290;2023-03-04T02:56:25;4.10;99.90
6439;DHT22;3252;52.540;13.290;2023-03-04T02:58:28;4.20;99.90
6439;DHT22;3252;52.540;13.290;2023-03-04T03:00:32;4.20;99.90
6439;DHT22;3252;52.540;13.290;2023-03-04T03:02:35;4.20;99.90
6439;DHT22;3252;52.540;13.290;2023-03-04T03:04:38;4.20;99.90
6439;DHT22;3252;52.540;13.290;2023-03-04T03:06:45;4.20;99.90
6439;DHT22;3252;52.540;13.290;2023-03-04T03:08:49;4.20;99.90
6439;DHT22;3252;52.540;13.290;2023-03-04T03:10:51;4.20;99.90
6439;DHT22;3252;52.540;13.290;2023-03-04T03:12:54;4.20;99.90
6439;DHT22;3252;52.540;13.290;2023-03-04T03:14:56;4.30;99.90
6439;DHT22;3252;52.540;13.290;2023-03-04T03:17:03;4.30;99.90
6439;DHT22;3252;52.540;13.290;2023-03-04T03:19:14;4.30;99.90
6439;DHT22;3252;52.540;13.290;2023-03-04T03:21:26;4.30;99.90
6439;DHT22;3252;52.540;13.290;2023-03-04T03:23:32;4.30;99.90
6439;DHT22;3252;52.540;13.290;2023-03-04T03:25:35;4.30;99.90
6439;DHT22;3252;52.540;13.290;2023-03-04T03:27:40;4.30;99.90
6439;DHT22;3252;52.540;13.290;2023-03-04T03:29:43;4.30;99.90
6439;DHT22;3252;52.540;13.290;2023-03-04T03:31:45;4.30;99.90
6439;DHT22;3252;52.540;13.290;2023-03-04T03:33:57;4.30;99.90
6439;DHT22;3252;52.540;13.290;2023-03-04T03:36:01;4.30;99.90
6439;DHT22;3252;52.540;13.290;2023-03-04T03:38:03;4.30;99.90
6439;DHT22;3252;52.540;13.290;2023-03-04T03:40:09;4.30;99.90
6439;DHT22;3252;52.540;13.290;2023-03-04T03:42:12;4.30;99.90
6439;DHT22;3252;52.540;13.290;2023-03-04T03:44:15;4.30;99.90
6439;DHT22;3252;52.540;13.290;2023-03-04T03:46:17;4.30;99.90
6439;DHT22;3252;52.540;13.290;2023-03-04T03:48:19;4.40;99.90
6439;DHT22;3252;52.540;13.290;2023-03-04T03:50:25;4.40;99.90
6439;DHT22;3252;52.540;13.290;2023-03-04T03:52:28;4.40;99.90
6439;DHT22;3252;52.540;13.290;2023-03-04T03:54:31;4.40;99.90
6439;DHT22;3252;52.540;13.290;2023-03-04T03:56:33;4.40;99.90
6439;DHT22;3252;52.540;13.290;2023-03-04T03:58:36;4.50;99.90
6439;DHT22;3252;52.540;13.290;2023-03-04T04:00:39;4.50;99.90
6439;DHT22;3252;52.540;13.290;2023-03-04T04:02:42;4.50;99.90
6439;DHT22;3252;52.540;13.290;2023-03-04T04:04:45;4.50;99.90
6439;DHT22;3252;52.540;13.290;2023-03-04T04:06:49;4.50;99.90
6439;DHT22;3252;52.540;13.290;2023-03-04T04:08:52;4.50;99.90
6439;DHT22;3252;52.540;13.290;2023-03-04T04:10:54;4.50;99.90
6439;DHT22;3252;52.540;13.290;2023-03-04T04:12:57;4.50;99.90
6439;DHT22;3252;52.540;13.290;2023-03-04T04:14:59;4.50;99.90
6439;DHT22;3252;52.540;13.290;2023-03-04T04:17:04;4.50;99.90
6439;DHT22;3252;52.540;13.290;2023-03-04T04:19:07;4.50;99.90
6439;DHT22;3252;52.540;13.290;2023-03-04T04:21:10;4.60;99.90
6439;DHT22;3252;52.540;13.290;2023-03-04T04:23:14;4.60;99.90
6439;DHT22;3252;52.540;13.290;2023-03-04T04:25:17;4.60;99.90
6439;DHT22;3252;52.540;13.290;2023-03-04T04:27:19;4.60;99.90
6439;DHT22;3252;52.540;13.290;2023-03-04T04:29:22;4.60;99.90
6439;DHT22;3252;52.540;13.290;2023-03-04T04:31:25;4.60;99.90
6439;DHT22;3252;52.540;13.290;2023-03-04T04:33:27;4.60;99.90
6439;DHT22;3252;52.540;13.290;2023-03-04T04:35:30;4.60;99.90
6439;DHT22;3252;52.540;13.290;2023-03-04T04:37:32;4.60;99.90
6439;DHT22;3252;52.540;13.290;2023-03-04T04:39:36;4.70;99.90
6439;DHT22;3252;52.540;13.290;2023-03-04T04:41:41;4.70;99.90
6439;DHT22;3252;52.540;13.290;2023-03-04T04:43:43;4.70;99.90
6439;DHT22;3252;52.540;13.290;2023-03-04T04:45:46;4.70;99.90
6439;DHT22;3252;52.540;13.290;2023-03-04T04:47:48;4.70;99.90
6439;DHT22;3252;52.540;13.290;2023-03-04T04:49:50;4.70;99.90
6439;DHT22;3252;52.540;13.290;2023-03-04T04:51:53;4.80;99.90
6439;DHT22;3252;52.540;13.290;2023-03-04T04:53:55;4.80;99.90
6439;DHT22;3252;52.540;13.290;2023-03-04T04:56:07;4.80;99.90
6439;DHT22;3252;52.540;13.290;2023-03-04T04:58:09;4.80;99.90
6439;DHT22;3252;52.540;13.290;2023-03-04T05:00:15;4.80;99.90
6439;DHT22;3252;52.540;13.290;2023-03-04T05:02:19;4.80;99.90
6439;DHT22;3252;52.540;13.290;2023-03-04T05:04:21;4.80;99.90
6439;DHT22;3252;52.540;13.290;2023-03-04T05:06:24;4.90;99.90
6439;DHT22;3252;52.540;13.290;2023-03-04T05:08:27;4.80;99.90
6439;DHT22;3252;52.540;13.290;2023-03-04T05:10:29;4.90;99.90
6439;DHT22;3252;52.540;13.290;2023-03-04T05:12:33;4.90;99.90
6439;DHT22;3252;52.540;13.290;2023-03-04T05:14:35;4.90;99.90
6439;DHT22;3252;52.540;13.290;2023-03-04T05:16:38;4.90;99.90
6439;DHT22;3252;52.540;13.290;2023-03-04T05:18:41;4.90;99.90
6439;DHT22;3252;52.540;13.290;2023-03-04T05:20:44;4.90;99.90
6439;DHT22;3252;52.540;13.290;2023-03-04T05:22:47;4.90;99.90
6439;DHT22;3252;52.540;13.290;2023-03-04T05:24:49;4.90;99.90
6439;DHT22;3252;52.540;13.290;2023-03-04T05:26:51;4.90;99.90
6439;DHT22;3252;52.540;13.290;2023-03-04T05:28:55;4.90;99.90
6439;DHT22;3252;52.540;13.290;2023-03-04T05:30:57;4.90;99.90
6439;DHT22;3252;52.540;13.290;2023-03-04T05:33:00;4.90;99.90
6439;DHT22;3252;52.540;13.290;2023-03-04T05:35:04;4.90;99.90
6439;DHT22;3252;52.540;13.290;2023-03-04T05:37:07;4.90;99.90
6439;DHT22;3252;52.540;13.290;2023-03-04T05:39:18;4.90;99.90
6439;DHT22;3252;52.540;13.290;2023-03-04T05:41:43;4.90;99.90
6439;DHT22;3252;52.540;13.290;2023-03-04T05:43:48;4.90;99.90
6439;DHT22;3252;52.540;13.290;2023-03-04T05:45:52;4.90;99.90
6439;DHT22;3252;52.540;13.290;2023-03-04T05:47:55;4.90;99.90
6439;DHT22;3252;52.540;13.290;2023-03-04T05:50:03;4.90;99.90
6439;DHT22;3252;52.540;13.290;2023-03-04T05:52:35;4.90;99.90
6439;DHT22;3252;52.540;13.290;2023-03-04T05:54:38;4.90;99.90
6439;DHT22;3252;52.540;13.290;2023-03-04T05:56:41;4.90;99.90
6439;DHT22;3252;52.540;13.290;2023-03-04T05:58:48;4.90;99.90
6439;DHT22;3252;52.540;13.290;2023-03-04T06:00:52;4.90;99.90
6439;DHT22;3252;52.540;13.290;2023-03-04T06:02:58;4.90;99.90
6439;DHT22;3252;52.540;13.290;2023-03-04T06:05:04;4.90;99.90
6439;DHT22;3252;52.540;13.290;2023-03-04T06:07:06;4.90;99.90
6439;DHT22;3252;52.540;13.290;2023-03-04T06:09:08;4.90;99.90
6439;DHT22;3252;52.540;13.290;2023-03-04T06:11:11;4.90;99.90
6439;DHT22;3252;52.540;13.290;2023-03-04T06:13:16;4.90;99.90
6439;DHT22;3252;52.540;13.290;2023-03-04T06:15:18;4.90;99.90
6439;DHT22;3252;52.540;13.290;2023-03-04T06:17:22;4.90;99.90
6439;DHT22;3252;52.540;13.290;2023-03-04T06:19:24;4.90;99.90
6439;DHT22;3252;52.540;13.290;2023-03-04T06:21:27;4.90;99.90
6439;DHT22;3252;52.540;13.290;2023-03-04T06:23:29;4.90;99.90
6439;DHT22;3252;52.540;13.290;2023-03-04T06:25:32;4.90;99.90
6439;DHT22;3252;52.540;13.290;2023-03-04T06:27:34;4.90;99.90
6439;DHT22;3252;52.540;13.290;2023-03-04T06:29:36;5.00;99.90
6439;DHT22;3252;52.540;13.290;2023-03-04T06:31:42;5.00;99.90
6439;DHT22;3252;52.540;13.290;2023-03-04T06:33:46;5.00;99.90
6439;DHT22;3252;52.540;13.290;2023-03-04T06:35:48;5.00;99.90
6439;DHT22;3252;52.540;13.290;2023-03-04T06:37:54;5.00;99.90
6439;DHT22;3252;52.540;13.290;2023-03-04T06:39:56;5.00;99.90
6439;DHT22;3252;52.540;13.290;2023-03-04T06:41:59;5.00;99.90
6439;DHT22;3252;52.540;13.290;2023-03-04T06:44:01;5.00;99.90
6439;DHT22;3252;52.540;13.290;2023-03-04T06:46:07;5.00;99.90
6439;DHT22;3252;52.540;13.290;2023-03-04T06:48:10;5.00;99.90
6439;DHT22;3252;52.540;13.290;2023-03-04T06:50:14;5.10;99.90
6439;DHT22;3252;52.540;13.290;2023-03-04T06:52:16;5.10;99.90
6439;DHT22;3252;52.540;13.290;2023-03-04T06:54:19;5.00;99.90
6439;DHT22;3252;52.540;13.290;2023-03-04T06:56:21;5.10;99.90
6439;DHT22;3252;52.540;13.290;2023-03-04T06:58:24;5.10;99.90
6439;DHT22;3252;52.540;13.290;2023-03-04T07:00:27;5.10;99.90
6439;DHT22;3252;52.540;13.290;2023-03-04T07:02:29;5.10;99.90
6439;DHT22;3252;52.540;13.290;2023-03-04T07:04:31;5.10;99.90
6439;DHT22;3252;52.540;13.290;2023-03-04T07:06:36;5.10;99.90
6439;DHT22;3252;52.540;13.290;2023-03-04T07:08:38;5.10;99.90
6439;DHT22;3252;52.540;13.290;2023-03-04T07:10:40;5.10;99.90
6439;DHT22;3252;52.540;13.290;2023-03-04T07:12:43;5.20;99.90
6439;DHT22;3252;52.540;13.290;2023-03-04T07:14:51;5.20;99.90
6439;DHT22;3252;52.540;13.290;2023-03-04T07:16:54;5.20;99.90
6439;DHT22;3252;52.540;13.290;2023-03-04T07:18:56;5.20;99.90
6439;DHT22;3252;52.540;13.290;2023-03-04T07:20:58;5.20;99.90
6439;DHT22;3252;52.540;13.290;2023-03-04T07:23:02;5.30;99.90
6439;DHT22;3252;52.540;13.290;2023-03-04T07:25:04;5.30;99.90
6439;DHT22;3252;52.540;13.290;2023-03-04T07:27:07;5.30;99.90
6439;DHT22;3252;52.540;13.290;2023-03-04T07:29:10;5.30;99.90
6439;DHT22;3252;52.540;13.290;2023-03-04T07:31:22;5.30;99.90
6439;DHT22;3252;52.540;13.290;2023-03-04T07:33:24;5.40;99.90
6439;DHT22;3252;52.540;13.290;2023-03-04T07:35:27;5.40;99.90
6439;DHT22;3252;52.540;13.290;2023-03-04T07:37:29;5.40;99.90
6439;DHT22;3252;52.540;13.290;2023-03-04T07:39:32;5.40;99.90
6439;DHT22;3252;52.540;13.290;2023-03-04T07:41:35;5.50;99.90
6439;DHT22;3252;52.540;13.290;2023-03-04T07:43:37;5.50;99.90
6439;DHT22;3252;52.540;13.290;2023-03-04T07:45:39;5.40;99.90
6439;DHT22;3252;52.540;13.290;2023-03-04T07:47:42;5.50;99.90
6439;DHT22;3252;52.540;13.290;2023-03-04T07:49:44;5.50;99.90
6439;DHT22;3252;52.540;13.290;2023-03-04T07:51:46;5.50;99.90
6439;DHT22;3252;52.540;13.290;2023-03-04T07:53:50;5.60;99.90
6439;DHT22;3252;52.540;13.290;2023-03-04T07:55:54;5.60;99.90
6439;DHT22;3252;52.540;13.290;2023-03-04T07:57:57;5.60;99.90
6439;DHT22;3252;52.540;13.290;2023-03-04T08:00:03;5.50;99.90
6439;DHT22;3252;52.540;13.290;2023-03-04T08:02:13;5.50;99.90
6439;DHT22;3252;52.540;13.290;2023-03-04T08:04:17;5.50;99.90
6439;DHT22;3252;52.540;13.290;2023-03-04T08:06:28;5.60;99.90
6439;DHT22;3252;52.540;13.290;2023-03-04T08:08:30;5.60;99.90
6439;DHT22;3252;52.540;13.290;2023-03-04T08:10:33;5.60;99.90
6439;DHT22;3252;52.540;13.290;2023-03-04T08:12:36;5.60;99.90
6439;DHT22;3252;52.540;13.290;2023-03-04T08:14:38;5.60;99.90
6439;DHT22;3252;52.540;13.290;2023-03-04T08:16:41;5.60;99.90
6439;DHT22;3252;52.540;13.290;2023-03-04T08:18:43;5.60;99.90
6439;DHT22;3252;52.540;13.290;2023-03-04T08:20:47;5.60;99.90
6439;DHT22;3252;52.540;13.290;2023-03-04T08:22:51;5.60;99.90
6439;DHT22;3252;52.540;13.290;2023-03-04T08:24:54;5.70;99.90
6439;DHT22;3252;52.540;13.290;2023-03-04T08:26:56;5.70;99.90
6439;DHT22;3252;52.540;13.290;2023-03-04T08:29:01;5.70;99.90
6439;DHT22;3252;52.540;13.290;2023-03-04T08:31:04;5.70;99.90
6439;DHT22;3252;52.540;13.290;2023-03-04T08:33:06;5.80;99.90
6439;DHT22;3252;52.540;13.290;2023-03-04T08:35:08;5.80;99.90
6439;DHT22;3252;52.540;13.290;2023-03-04T08:37:14;5.80;99.90
6439;DHT22;3252;52.540;13.290;2023-03-04T08:39:17;5.80;99.90
6439;DHT22;3252;52.540;13.290;2023-03-04T08:41:20;5.80;99.90
6439;DHT22;3252;52.540;13.290;2023-03-04T08:43:24;5.90;99.90
6439;DHT22;3252;52.540;13.290;2023-03-04T08:45:28;5.90;99.90
6439;DHT22;3252;52.540;13.290;2023-03-04T08:47:30;6.00;99.90
6439;DHT22;3252;52.540;13.290;2023-03-04T08:49:32;6.00;99.90
6439;DHT22;3252;52.540;13.290;2023-03-04T08:51:43;6.00;99.90
6439;DHT22;3252;52.540;13.290;2023-03-04T08:53:49;6.00;99.90
6439;DHT22;3252;52.540;13.290;2023-03-04T08:55:57;6.10;99.90
6439;DHT22;3252;52.540;13.290;2023-03-04T08:58:01;6.10;99.90
6439;DHT22;3252;52.540;13.290;2023-03-04T09:00:04;6.20;99.90
6439;DHT22;3252;52.540;13.290;2023-03-04T09:02:09;6.20;99.90
6439;DHT22;3252;52.540;13.290;2023-03-04T09:04:11;6.20;99.90
6439;DHT22;3252;52.540;13.290;2023-03-04T09:06:15;6.30;99.90
6439;DHT22;3252;52.540;13.290;2023-03-04T09:08:21;6.30;99.90
6439;DHT22;3252;52.540;13.290;2023-03-04T09:10:23;6.30;99.90
6439;DHT22;3252;52.540;13.290;2023-03-04T09:12:26;6.40;99.90
6439;DHT22;3252;52.540;13.290;2023-03-04T09:14:30;6.40;99.90
6439;DHT22;3252;52.540;13.290;2023-03-04T09:16:33;6.50;99.90
6439;DHT22;3252;52.540;13.290;2023-03-04T09:18:40;6.50;99.90
6439;DHT22;3252;52.540;13.290;2023-03-04T09:20:45;6.50;99.90
6439;DHT22;3252;52.540;13.290;2023-03-04T09:22:47;6.50;99.90
6439;DHT22;3252;52.540;13.290;2023-03-04T09:24:50;6.50;99.90
6439;DHT22;3252;52.540;13.290;2023-03-04T09:26:53;6.50;99.90
6439;DHT22;3252;52.540;13.290;2023-03-04T09:29:03;6.50;99.90
6439;DHT22;3252;52.540;13.290;2023-03-04T09:31:16;6.60;99.90
6439;DHT22;3252;52.540;13.290;2023-03-04T09:33:30;6.70;99.90
6439;DHT22;3252;52.540;13.290;2023-03-04T09:35:38;6.70;99.90
6439;DHT22;3252;52.540;13.290;2023-03-04T09:37:50;6.70;99.90
6439;DHT22;3252;52.540;13.290;2023-03-04T09:39:56;6.70;99.90
6439;DHT22;3252;52.540;13.290;2023-03-04T09:42:23;6.70;99.90
6439;DHT22;3252;52.540;13.290;2023-03-04T09:44:31;6.70;99.90
6439;DHT22;3252;52.540;13.290;2023-03-04T09:46:39;6.70;99.90
6439;DHT22;3252;52.540;13.290;2023-03-04T09:48:44;6.80;99.90
6439;DHT22;3252;52.540;13.290;2023-03-04T09:50:59;6.80;99.90
6439;DHT22;3252;52.540;13.290;2023-03-04T09:53:16;6.80;99.90
6439;DHT22;3252;52.540;13.290;2023-03-04T09:55:22;6.80;99.90
6439;DHT22;3252;52.540;13.290;2023-03-04T09:57:29;6.80;99.90
6439;DHT22;3252;52.540;13.290;2023-03-04T09:59:42;6.80;99.90
6439;DHT22;3252;52.540;13.290;2023-03-04T10:01:48;6.80;99.90
6439;DHT22;3252;52.540;13.290;2023-03-04T10:03:55;6.80;99.90
6439;DHT22;3252;52.540;13.290;2023-03-04T10:06:05;6.80;99.90
6439;DHT22;3252;52.540;13.290;2023-03-04T10:08:19;6.90;99.90
6439;DHT22;3252;52.540;13.290;2023-03-04T10:10:29;6.90;99.90
6439;DHT22;3252;52.540;13.290;2023-03-04T10:12:36;6.90;99.90
6439;DHT22;3252;52.540;13.290;2023-03-04T10:14:44;7.00;99.90
6439;DHT22;3252;52.540;13.290;2023-03-04T10:16:52;7.00;99.90
6439;DHT22;3252;52.540;13.290;2023-03-04T10:18:57;7.00;99.90
6439;DHT22;3252;52.540;13.290;2023-03-04T10:21:05;7.00;99.90
6439;DHT22;3252;52.540;13.290;2023-03-04T10:23:14;6.90;99.90
6439;DHT22;3252;52.540;13.290;2023-03-04T10:25:22;7.00;99.90
6439;DHT22;3252;52.540;13.290;2023-03-04T10:27:25;6.90;99.90
6439;DHT22;3252;52.540;13.290;2023-03-04T10:29:31;6.90;99.90
6439;DHT22;3252;52.540;13.290;2023-03-04T10:31:35;6.90;99.90
6439;DHT22;3252;52.540;13.290;2023-03-04T10:33:39;6.90;99.90
6439;DHT22;3252;52.540;13.290;2023-03-04T10:35:44;6.90;99.90
6439;DHT22;3252;52.540;13.290;2023-03-04T10:37:49;6.90;99.90
6439;DHT22;3252;52.540;13.290;2023-03-04T10:39:51;7.00;99.90
6439;DHT22;3252;52.540;13.290;2023-03-04T10:41:56;7.20;99.90
6439;DHT22;3252;52.540;13.290;2023-03-04T10:44:02;7.40;99.90
6439;DHT22;3252;52.540;13.290;2023-03-04T10:46:04;7.50;99.90
6439;DHT22;3252;52.540;13.290;2023-03-04T10:48:18;7.60;99.70
6439;DHT22;3252;52.540;13.290;2023-03-04T10:50:22;7.60;99.80
6439;DHT22;3252;52.540;13.290;2023-03-04T10:52:28;7.60;98.60
6439;DHT22;3252;52.540;13.290;2023-03-04T10:54:38;7.50;98.80
6439;DHT22;3252;52.540;13.290;2023-03-04T10:56:43;7.50;99.40
6439;DHT22;3252;52.540;13.290;2023-03-04T11:01:53;7.50;99.30
6439;DHT22;3252;52.540;13.290;2023-03-04T11:03:56;7.60;98.80
6439;DHT22;3252;52.540;13.290;2023-03-04T11:06:11;7.50;99.30
6439;DHT22;3252;52.540;13.290;2023-03-04T11:08:18;7.60;99.10
6439;DHT22;3252;52.540;13.290;2023-03-04T11:10:28;7.50;98.80
6439;DHT22;3252;52.540;13.290;2023-03-04T11:12:33;7.50;99.20
6439;DHT22;3252;52.540;13.290;2023-03-04T11:14:37;7.40;98.80
6439;DHT22;3252;52.540;13.290;2023-03-04T11:16:52;7.40;99.30
6439;DHT22;3252;52.540;13.290;2023-03-04T11:18:57;7.40;99.60
6439;DHT22;3252;52.540;13.290;2023-03-04T11:21:00;7.40;99.60
6439;DHT22;3252;52.540;13.290;2023-03-04T11:23:04;7.30;98.90
6439;DHT22;3252;52.540;13.290;2023-03-04T11:25:19;7.30;99.10
6439;DHT22;3252;52.540;13.290;2023-03-04T11:27:29;7.30;99.20
6439;DHT22;3252;52.540;13.290;2023-03-04T11:29:38;7.20;99.20
6439;DHT22;3252;52.540;13.290;2023-03-04T11:31:48;7.30;99.60
6439;DHT22;3252;52.540;13.290;2023-03-04T11:33:55;7.20;99.60
6439;DHT22;3252;52.540;13.290;2023-03-04T11:36:08;7.20;99.30
6439;DHT22;3252;52.540;13.290;2023-03-04T11:38:18;7.10;99.60
6439;DHT22;3252;52.540;13.290;2023-03-04T11:40:28;7.20;99.60
6439;DHT22;3252;52.540;13.290;2023-03-04T11:42:39;7.20;99.40
6439;DHT22;3252;52.540;13.290;2023-03-04T11:44:43;7.20;98.40
6439;DHT22;3252;52.540;13.290;2023-03-04T11:46:55;7.20;98.20
6439;DHT22;3252;52.540;13.290;2023-03-04T11:49:19;7.10;97.40
6439;DHT22;3252;52.540;13.290;2023-03-04T11:51:31;7.20;97.50
6439;DHT22;3252;52.540;13.290;2023-03-04T11:53:53;7.20;97.60
6439;DHT22;3252;52.540;13.290;2023-03-04T11:56:12;7.20;97.50
6439;DHT22;3252;52.540;13.290;2023-03-04T12:00:53;7.20;97.20
6439;DHT22;3252;52.540;13.290;2023-03-04T12:03:14;7.20;96.90
6439;DHT22;3252;52.540;13.290;2023-03-04T12:05:26;7.10;97.10
6439;DHT22;3252;52.540;13.290;2023-03-04T12:07:49;7.10;96.60
6439;DHT22;3252;52.540;13.290;2023-03-04T12:10:00;7.00;96.50
6439;DHT22;3252;52.540;13.290;2023-03-04T12:12:21;7.00;96.50
6439;DHT22;3252;52.540;13.290;2023-03-04T12:14:30;7.00;96.40
6439;DHT22;3252;52.540;13.290;2023-03-04T12:16:49;7.00;97.00
6439;DHT22;3252;52.540;13.290;2023-03-04T12:19:11;7.20;97.10
6439;DHT22;3252;52.540;13.290;2023-03-04T12:21:31;7.20;96.20
6439;DHT22;3252;52.540;13.290;2023-03-04T12:26:23;7.20;95.60
6439;DHT22;3252;52.540;13.290;2023-03-04T12:28:37;7.20;96.00
6439;DHT22;3252;52.540;13.290;2023-03-04T12:30:52;7.20;95.80
6439;DHT22;3252;52.540;13.290;2023-03-04T12:33:00;7.20;96.00
6439;DHT22;3252;52.540;13.290;2023-03-04T12:35:23;7.10;96.10
6439;DHT22;3252;52.540;13.290;2023-03-04T12:40:29;7.10;96.10
6439;DHT22;3252;52.540;13.290;2023-03-04T12:42:39;7.00;96.90
6439;DHT22;3252;52.540;13.290;2023-03-04T12:44:54;7.10;96.20
6439;DHT22;3252;52.540;13.290;2023-03-04T12:47:16;7.00;96.10
6439;DHT22;3252;52.540;13.290;2023-03-04T12:49:33;7.00;95.70
6439;DHT22;3252;52.540;13.290;2023-03-04T12:51:43;7.10;96.20
6439;DHT22;3252;52.540;13.290;2023-03-04T12:53:57;7.00;96.30
6439;DHT22;3252;52.540;13.290;2023-03-04T12:56:02;7.00;96.20
6439;DHT22;3252;52.540;13.290;2023-03-04T12:58:05;7.00;95.80
6439;DHT22;3252;52.540;13.290;2023-03-04T13:00:21;7.00;96.10
6439;DHT22;3252;52.540;13.290;2023-03-04T13:02:38;7.10;96.80
6439;DHT22;3252;52.540;13.290;2023-03-04T13:04:50;7.10;96.30
6439;DHT22;3252;52.540;13.290;2023-03-04T13:07:07;7.00;95.80
6439;DHT22;3252;52.540;13.290;2023-03-04T13:09:20;7.00;96.10
6439;DHT22;3252;52.540;13.290;2023-03-04T13:14:04;6.90;96.10
6439;DHT22;3252;52.540;13.290;2023-03-04T13:16:27;6.90;96.30
6439;DHT22;3252;52.540;13.290;2023-03-04T13:18:33;6.90;96.50
6439;DHT22;3252;52.540;13.290;2023-03-04T13:20:39;7.00;96.60
6439;DHT22;3252;52.540;13.290;2023-03-04T13:22:45;7.10;96.30
6439;DHT22;3252;52.540;13.290;2023-03-04T13:24:51;7.00;96.40
6439;DHT22;3252;52.540;13.290;2023-03-04T13:26:54;6.90;96.50
6439;DHT22;3252;52.540;13.290;2023-03-04T13:29:32;6.90;96.40
6439;DHT22;3252;52.540;13.290;2023-03-04T13:31:59;6.90;96.70
6439;DHT22;3252;52.540;13.290;2023-03-04T13:34:03;6.80;96.80
6439;DHT22;3252;52.540;13.290;2023-03-04T13:36:50;6.70;97.00
6439;DHT22;3252;52.540;13.290;2023-03-04T13:38:59;6.70;96.50
6439;DHT22;3252;52.540;13.290;2023-03-04T13:41:12;6.80;97.00
6439;DHT22;3252;52.540;13.290;2023-03-04T13:43:24;6.90;96.70
6439;DHT22;3252;52.540;13.290;2023-03-04T13:45:33;6.90;97.40
6439;DHT22;3252;52.540;13.290;2023-03-04T13:47:47;7.00;97.10
6439;DHT22;3252;52.540;13.290;2023-03-04T13:49:50;7.00;96.80
6439;DHT22;3252;52.540;13.290;2023-03-04T13:52:33;7.00;96.90
6439;DHT22;3252;52.540;13.290;2023-03-04T13:54:38;7.00;95.70
6439;DHT22;3252;52.540;13.290;2023-03-04T13:56:40;6.90;95.00